KCRW/CRW METAR and TAF weather

Enter ICAO airport designator
Station Type Date Time Source
KCRW METAR 2019/04/25 20:54 UTC NOAA

KCRW 252054Z 20006KT 10SM SCT110 26/11 A2976 RMK AO2 SLP070 T02610106 58017


Station Type Date Time Source
KCRW Decoded METAR 2019/04/25 20:54 UTC NOAA

YEAGER AIRPORT, WV, United States (KCRW) 38-22N 081-36W 309M
Apr 25, 2019 - 04:54 PM EDT / 2019.04.25 2054 UTC
Wind: from the SSW (200 degrees) at 7 MPH (6 KT):0
Visibility: 10 mile(s):0
Sky conditions: partly cloudy
Temperature: 79.0 F (26.1 C)
Dew Point: 51.1 F (10.6 C)
Relative Humidity: 37%
Pressure (altimeter): 29.76 in. Hg (1007 hPa)
Pressure tendency: 0.05 inches (1.7 hPa) lower than three hours ago
ob: KCRW 252054Z 20006KT 10SM SCT110 26/11 A2976 RMK AO2 SLP070 T02610106 58017
cycle: 21

Station Type Date Time Source
KCRW TAF 2019/04/25 18:22 UTC NOAA

TAF KCRW 251720Z 2518/2618 23004KT P6SM SCT050 BKN100
FM260100 17004KT P6SM VCSH BKN060
FM260400 18006KT P6SM OVC060
FM260600 20008KT P6SM SHRA OVC050
FM261200 23014G21KT 5SM SHRA OVC015

Example: see airport list